Time;durP1;ratioP1;P1;durP2;ratioP2;P2;SDS_P1;SDS_P2;PMS_P1;PMS_P2;Temp;Humidity;BMP_temperature;BMP_pressure;BME280_temperature;BME280_humidity;BME280_pressure;Samples;Min_cycle;Max_cycle;Signal;HPM_P1;HPM_P2
2021/04/22 00:00:39;;;;;;;32.00;22.10;;;12.00;91.10;;;;;;4987113;28;20412;-81
2021/04/22 00:03:04;;;;;;;32.80;22.10;;;11.90;91.30;;;;;;4989582;28;20519;-80
2021/04/22 00:05:37;;;;;;;29.33;21.33;;;11.90;91.70;;;;;;4988551;28;20050;-80
2021/04/22 00:08:13;;;;;;;32.53;22.17;;;11.80;92.00;;;;;;4980321;28;20026;-79
2021/04/22 00:10:44;;;;;;;31.90;21.98;;;11.80;92.30;;;;;;4985709;28;20578;-77
2021/04/22 00:13:12;;;;;;;34.90;22.83;;;11.70;92.40;;;;;;4984337;28;20110;-80
2021/04/22 00:15:38;;;;;;;31.17;22.00;;;11.80;92.60;;;;;;4984762;28;20038;-79
2021/04/22 00:18:06;;;;;;;35.28;22.02;;;11.70;92.60;;;;;;4987196;28;20066;-82
2021/04/22 00:20:32;;;;;;;33.38;22.45;;;11.70;92.70;;;;;;4987928;28;20437;-81
2021/04/22 00:22:57;;;;;;;33.03;23.27;;;12.30;93.00;;;;;;4988952;28;20031;-82
2021/04/22 00:25:23;;;;;;;31.95;22.10;;;11.70;92.90;;;;;;4988121;28;20045;-79
2021/04/22 00:27:49;;;;;;;34.92;22.45;;;11.80;92.80;;;;;;4984464;28;20115;-78
2021/04/22 00:30:17;;;;;;;29.50;21.48;;;11.80;92.80;;;;;;4985828;28;20057;-82
2021/04/22 00:32:43;;;;;;;28.90;21.30;;;11.70;93.00;;;;;;4982246;28;20027;-79
2021/04/22 00:35:10;;;;;;;36.72;22.48;;;11.70;93.20;;;;;;4986917;28;20065;-80
2021/04/22 00:37:36;;;;;;;29.90;21.88;;;11.60;93.40;;;;;;4991477;28;20026;-80
2021/04/22 00:40:12;;;;;;;30.65;21.67;;;11.60;93.60;;;;;;4983256;28;20031;-80
2021/04/22 00:42:38;;;;;;;27.85;21.13;;;11.50;93.70;;;;;;4985587;28;20035;-79
2021/04/22 00:45:05;;;;;;;34.50;22.35;;;11.50;93.90;;;;;;4994066;28;20033;-79
2021/04/22 00:47:30;;;;;;;31.42;22.23;;;11.50;94.20;;;;;;4985381;28;20056;-79
2021/04/22 00:49:56;;;;;;;35.28;23.25;;;11.50;94.20;;;;;;4992411;28;20041;-77
2021/04/22 00:52:22;;;;;;;32.92;22.08;;;11.40;94.20;;;;;;4988225;28;20077;-79
2021/04/22 00:54:48;;;;;;;33.28;22.88;;;11.40;94.40;;;;;;4990884;28;20183;-83
2021/04/22 00:57:13;;;;;;;31.50;22.15;;;11.60;94.60;;;;;;4987918;28;20026;-76
2021/04/22 00:59:39;;;;;;;33.05;23.15;;;11.40;94.70;;;;;;4990169;28;20037;-82
2021/04/22 01:02:13;;;;;;;35.88;21.52;;;11.40;94.80;;;;;;4987728;28;20121;-79
2021/04/22 01:04:39;;;;;;;32.33;21.60;;;11.30;94.80;;;;;;4979231;28;20045;-80
2021/04/22 01:07:05;;;;;;;29.73;22.52;;;11.30;95.00;;;;;;4987039;28;20026;-82
2021/04/22 01:09:32;;;;;;;33.28;23.48;;;11.20;95.10;;;;;;4991786;28;20022;-81
2021/04/22 01:12:00;;;;;;;32.97;22.65;;;11.20;95.20;;;;;;4993053;28;20026;-80
2021/04/22 01:14:26;;;;;;;30.98;22.30;;;11.20;95.40;;;;;;4987082;28;20060;-80
2021/04/22 01:16:52;;;;;;;29.55;22.55;;;11.10;95.50;;;;;;4991740;28;20034;-80
2021/04/22 01:19:17;;;;;;;30.70;22.20;;;11.10;95.60;;;;;;4989232;28;20033;-80
2021/04/22 01:21:43;;;;;;;35.05;23.08;;;11.10;95.70;;;;;;4986773;28;20037;-79
2021/04/22 01:24:10;;;;;;;31.73;21.98;;;11.10;95.90;;;;;;4988263;28;20041;-80
2021/04/22 01:26:36;;;;;;;38.17;23.33;;;11.00;96.00;;;;;;4987684;28;20038;-77
2021/04/22 01:29:03;;;;;;;35.60;23.13;;;11.00;96.20;;;;;;4979048;28;20034;-80
2021/04/22 01:31:29;;;;;;;31.63;22.50;;;11.00;96.20;;;;;;4971569;28;20030;-79
2021/04/22 01:34:07;;;;;;;34.25;23.13;;;11.00;96.40;;;;;;4989331;28;20415;-79
2021/04/22 01:36:39;;;;;;;33.00;21.35;;;10.90;96.40;;;;;;4994257;28;20032;-78
2021/04/22 01:39:06;;;;;;;32.05;22.30;;;10.90;96.60;;;;;;4972867;28;20041;-78
2021/04/22 01:41:32;;;;;;;30.83;21.63;;;10.80;96.60;;;;;;4989834;28;20022;-79
2021/04/22 01:43:58;;;;;;;33.03;23.33;;;10.80;96.70;;;;;;4992549;28;20022;-80
2021/04/22 01:46:24;;;;;;;34.85;23.20;;;10.80;97.10;;;;;;4991112;28;20034;-78
2021/04/22 01:48:51;;;;;;;31.65;21.77;;;10.70;97.20;;;;;;4987796;28;20026;-81
2021/04/22 01:51:17;;;;;;;29.35;22.52;;;10.70;97.20;;;;;;4989854;28;20049;-79
2021/04/22 01:53:42;;;;;;;34.65;22.33;;;10.60;97.30;;;;;;4981816;28;20039;-79
2021/04/22 01:56:08;;;;;;;32.30;22.42;;;10.50;97.60;;;;;;4977270;28;20029;-81
2021/04/22 01:58:34;;;;;;;35.00;22.77;;;10.50;97.70;;;;;;4985060;28;20073;-80
2021/04/22 02:01:00;;;;;;;31.67;22.17;;;10.70;97.90;;;;;;4984199;28;20045;-77
2021/04/22 02:03:28;;;;;;;37.90;22.80;;;10.40;97.90;;;;;;4978671;28;20046;-79
2021/04/22 02:05:55;;;;;;;40.00;24.80;;;10.40;98.10;;;;;;4981292;28;20041;-80
2021/04/22 02:08:21;;;;;;;37.10;23.25;;;10.30;98.20;;;;;;4984327;28;20656;-79
2021/04/22 02:10:47;;;;;;;31.83;21.15;;;10.30;98.30;;;;;;4985950;28;20031;-80
2021/04/22 02:13:14;;;;;;;30.48;21.60;;;10.20;98.50;;;;;;4985187;28;20022;-81
2021/04/22 02:15:40;;;;;;;30.33;21.85;;;10.20;98.50;;;;;;4986350;28;20038;-77
2021/04/22 02:18:06;;;;;;;31.05;21.40;;;10.10;98.50;;;;;;5006764;28;20026;-82
2021/04/22 02:20:33;;;;;;;29.75;20.83;;;10.10;98.70;;;;;;4989789;28;20061;-80
2021/04/22 02:22:59;;;;;;;30.45;21.30;;;10.00;98.90;;;;;;4985165;28;20110;-82
2021/04/22 02:25:26;;;;;;;31.75;21.88;;;10.00;99.00;;;;;;4988605;28;20116;-79
2021/04/22 02:27:52;;;;;;;32.83;22.52;;;10.00;99.20;;;;;;4986379;28;20026;-80
2021/04/22 02:30:18;;;;;;;33.72;21.33;;;10.00;99.20;;;;;;4983885;28;20500;-79
2021/04/22 02:32:44;;;;;;;31.30;21.40;;;9.90;99.20;;;;;;4984847;28;20058;-83
2021/04/22 02:35:13;;;;;;;31.10;21.88;;;9.90;99.40;;;;;;4977103;28;20039;-80
2021/04/22 02:37:39;;;;;;;29.92;21.55;;;9.80;99.40;;;;;;4981106;28;20034;-80
2021/04/22 02:40:11;;;;;;;33.00;22.40;;;9.80;99.50;;;;;;4985980;28;20061;-80
2021/04/22 02:42:37;;;;;;;31.30;22.50;;;9.70;99.70;;;;;;4987249;28;20062;-82
2021/04/22 02:45:07;;;;;;;31.77;22.08;;;9.70;99.80;;;;;;4991748;28;20061;-78
2021/04/22 02:47:32;;;;;;;31.70;22.10;;;9.60;99.90;;;;;;4990217;28;20022;-79
2021/04/22 02:49:58;;;;;;;35.58;23.13;;;9.60;99.90;;;;;;4989299;28;20080;-79
2021/04/22 02:52:23;;;;;;;32.38;22.10;;;9.50;99.90;;;;;;4988682;28;20056;-82
2021/04/22 02:54:49;;;;;;;35.65;22.85;;;9.50;99.90;;;;;;4987005;28;20034;-80
2021/04/22 02:57:14;;;;;;;31.48;22.63;;;9.50;99.90;;;;;;4981187;28;20117;-79
2021/04/22 02:59:40;;;;;;;36.90;22.08;;;9.60;99.90;;;;;;4980571;28;20027;-80
2021/04/22 03:02:06;;;;;;;33.90;22.08;;;9.50;99.90;;;;;;4986458;28;20034;-79
2021/04/22 03:04:34;;;;;;;33.75;22.65;;;9.50;99.90;;;;;;4988522;28;20282;-79
2021/04/22 03:06:59;;;;;;;33.05;22.20;;;9.50;99.90;;;;;;4988252;28;20117;-81
2021/04/22 03:09:25;;;;;;;30.48;22.13;;;9.50;99.90;;;;;;4988338;28;20068;-80
2021/04/22 03:11:53;;;;;;;31.60;20.67;;;9.40;99.90;;;;;;4987840;28;20497;-83
2021/04/22 03:14:18;;;;;;;32.40;20.42;;;9.90;99.90;;;;;;4965978;28;20057;-81
2021/04/22 03:16:44;;;;;;;31.25;21.52;;;9.40;99.90;;;;;;4979368;28;20400;-79
2021/04/22 03:19:09;;;;;;;28.27;20.45;;;9.40;99.90;;;;;;4981974;28;20470;-79
2021/04/22 03:21:35;;;;;;;29.48;19.90;;;9.30;99.90;;;;;;4984555;28;20065;-79
2021/04/22 03:24:03;;;;;;;27.55;19.08;;;9.30;99.90;;;;;;4984637;28;20030;-80
2021/04/22 03:26:28;;;;;;;35.67;20.00;;;9.40;99.90;;;;;;4991810;28;20042;-79
2021/04/22 03:28:54;;;;;;;33.35;20.05;;;9.40;99.90;;;;;;4987472;28;20038;-80
2021/04/22 03:31:19;;;;;;;28.17;18.67;;;9.30;99.90;;;;;;4986275;28;20114;-80
2021/04/22 03:33:45;;;;;;;28.90;18.92;;;9.30;99.90;;;;;;4985939;28;20034;-79
2021/04/22 03:36:11;;;;;;;29.15;18.48;;;9.20;99.90;;;;;;4984804;28;20032;-81
2021/04/22 03:38:36;;;;;;;30.55;18.65;;;9.20;99.90;;;;;;4986789;28;20049;-77
2021/04/22 03:41:02;;;;;;;30.90;18.60;;;9.20;99.90;;;;;;4989601;28;20030;-81
2021/04/22 03:43:28;;;;;;;24.48;17.20;;;9.20;99.90;;;;;;4984771;28;20035;-81
2021/04/22 03:45:53;;;;;;;26.90;17.52;;;9.20;99.90;;;;;;4987869;28;20149;-81
2021/04/22 03:48:19;;;;;;;25.50;16.08;;;9.20;99.90;;;;;;4988960;28;20037;-81
2021/04/22 03:50:45;;;;;;;25.40;17.00;;;9.20;99.90;;;;;;4990260;28;20041;-83
2021/04/22 03:53:10;;;;;;;31.30;17.35;;;9.20;99.90;;;;;;4991624;28;20053;-81
2021/04/22 03:55:36;;;;;;;25.95;16.38;;;9.20;99.90;;;;;;4986487;28;20034;-81
2021/04/22 03:58:02;;;;;;;23.27;15.05;;;9.20;99.90;;;;;;4986944;28;20673;-81
2021/04/22 04:00:28;;;;;;;23.33;13.48;;;9.20;99.80;;;;;;4992173;28;20310;-81
2021/04/22 04:02:53;;;;;;;25.08;15.10;;;9.30;99.50;;;;;;4982328;28;20061;-80
2021/04/22 04:05:19;;;;;;;24.83;14.65;;;9.30;99.40;;;;;;4981986;28;20517;-79
2021/04/22 04:07:45;;;;;;;25.23;14.70;;;9.20;99.30;;;;;;4990640;28;20033;-80
2021/04/22 04:10:11;;;;;;;21.73;12.70;;;9.20;99.30;;;;;;4983089;28;20034;-80
2021/04/22 04:12:37;;;;;;;22.33;13.23;;;9.30;98.80;;;;;;4984040;28;20490;-77
2021/04/22 04:15:05;;;;;;;18.70;13.02;;;9.20;98.90;;;;;;4985732;28;20254;-81
2021/04/22 04:17:33;;;;;;;20.88;13.23;;;9.20;99.00;;;;;;4971302;28;20030;-80
2021/04/22 04:19:58;;;;;;;22.33;12.93;;;9.60;99.40;;;;;;4991021;28;20042;-80
2021/04/22 04:22:24;;;;;;;21.38;12.38;;;9.00;99.30;;;;;;4986994;28;20464;-80
2021/04/22 04:24:50;;;;;;;20.90;12.18;;;9.00;99.30;;;;;;4993264;28;20033;-80
2021/04/22 04:27:15;;;;;;;19.50;12.15;;;9.00;99.00;;;;;;4992400;28;20101;-79
2021/04/22 04:29:41;;;;;;;19.98;11.65;;;9.00;98.90;;;;;;4992612;28;20480;-80
2021/04/22 04:32:07;;;;;;;20.50;11.55;;;9.00;99.00;;;;;;4991987;28;20065;-78
2021/04/22 04:34:32;;;;;;;21.67;10.57;;;9.20;99.00;;;;;;4990226;28;20030;-83
2021/04/22 04:36:58;;;;;;;19.00;10.57;;;9.10;98.70;;;;;;4985704;28;20432;-79
2021/04/22 04:39:24;;;;;;;19.60;11.85;;;9.00;98.60;;;;;;4990646;28;20114;-82
2021/04/22 04:41:49;;;;;;;20.45;10.73;;;9.00;98.70;;;;;;4986963;28;20060;-80
2021/04/22 04:44:15;;;;;;;18.90;10.45;;;9.10;98.70;;;;;;4987598;28;20034;-80
2021/04/22 04:46:40;;;;;;;21.98;10.63;;;8.90;98.60;;;;;;4986978;28;20022;-79
2021/04/22 04:49:06;;;;;;;22.70;11.18;;;8.80;98.80;;;;;;4987196;28;20405;-81
2021/04/22 04:51:35;;;;;;;21.63;12.25;;;8.80;98.80;;;;;;4988698;28;20027;-81
2021/04/22 04:54:01;;;;;;;19.05;10.90;;;8.80;98.90;;;;;;4981993;28;20053;-80
2021/04/22 04:56:27;;;;;;;18.88;10.43;;;8.70;98.90;;;;;;4997629;28;20038;-80
2021/04/22 04:58:53;;;;;;;26.63;10.98;;;8.80;98.40;;;;;;4983351;28;20039;-81
2021/04/22 05:01:18;;;;;;;21.00;10.85;;;8.80;98.50;;;;;;4978217;28;20030;-79
2021/04/22 05:03:44;;;;;;;19.13;10.43;;;8.80;98.50;;;;;;4983177;28;21013;-85
2021/04/22 05:06:10;;;;;;;19.08;10.07;;;10.30;99.10;;;;;;4983211;28;20061;-80
2021/04/22 05:08:38;;;;;;;25.02;9.75;;;8.80;98.70;;;;;;4987214;28;20038;-79
2021/04/22 05:11:04;;;;;;;19.23;9.98;;;8.80;98.40;;;;;;4983476;28;20061;-79
2021/04/22 05:13:29;;;;;;;22.75;9.82;;;8.80;98.50;;;;;;4983573;28;20576;-77
2021/04/22 05:15:56;;;;;;;17.63;9.35;;;8.80;98.40;;;;;;4982826;28;20034;-78
2021/04/22 05:18:22;;;;;;;25.23;9.95;;;8.80;98.30;;;;;;4982970;28;20578;-79
2021/04/22 05:20:48;;;;;;;16.90;9.07;;;8.80;98.20;;;;;;4978932;28;20030;-81
2021/04/22 05:23:14;;;;;;;16.77;9.30;;;8.80;98.00;;;;;;4995605;28;20038;-80
2021/04/22 05:25:40;;;;;;;16.33;8.45;;;8.80;97.90;;;;;;4983217;28;20043;-80
2021/04/22 05:28:05;;;;;;;19.95;9.73;;;8.80;97.80;;;;;;4982309;28;20149;-79
2021/04/22 05:30:31;;;;;;;17.75;8.50;;;8.90;97.50;;;;;;4978101;28;20116;-83
2021/04/22 05:32:57;;;;;;;23.33;9.20;;;8.90;97.50;;;;;;4976932;28;20034;-77
2021/04/22 05:35:22;;;;;;;18.48;8.48;;;8.90;97.30;;;;;;4983703;28;20031;-84
2021/04/22 05:37:48;;;;;;;16.20;8.38;;;9.00;97.00;;;;;;4977243;28;20038;-80
2021/04/22 05:40:14;;;;;;;18.77;8.20;;;9.00;97.00;;;;;;4969129;28;20038;-77
2021/04/22 05:42:40;;;;;;;17.10;7.95;;;9.10;96.50;;;;;;4971840;28;20038;-82
2021/04/22 05:45:06;;;;;;;16.42;7.80;;;9.20;96.40;;;;;;4967819;28;20409;-79
2021/04/22 05:47:32;;;;;;;16.38;7.97;;;9.30;95.90;;;;;;4970681;28;20044;-82
2021/04/22 05:49:57;;;;;;;19.63;8.15;;;9.20;96.10;;;;;;4979717;28;20037;-81
2021/04/22 05:52:23;;;;;;;15.65;7.75;;;9.20;96.00;;;;;;4986844;28;20292;-83
2021/04/22 05:54:48;;;;;;;18.52;8.23;;;9.10;96.20;;;;;;4986220;28;20030;-83
2021/04/22 05:57:14;;;;;;;16.42;7.75;;;9.20;96.10;;;;;;4976474;28;20057;-79
2021/04/22 05:59:42;;;;;;;17.92;7.30;;;9.30;95.40;;;;;;4994238;28;20508;-80
2021/04/22 06:02:08;;;;;;;20.98;7.95;;;9.50;95.00;;;;;;4997678;28;20054;-81
2021/04/22 06:04:33;;;;;;;20.25;7.97;;;9.60;94.60;;;;;;4993995;28;20042;-78
2021/04/22 06:06:59;;;;;;;17.90;6.85;;;9.50;94.70;;;;;;4982580;28;20061;-81
2021/04/22 06:09:25;;;;;;;18.40;6.82;;;9.40;94.60;;;;;;4984999;28;20153;-80
2021/04/22 06:11:51;;;;;;;15.43;6.57;;;9.40;94.40;;;;;;4982497;28;20099;-80
2021/04/22 06:14:16;;;;;;;13.30;6.82;;;9.40;94.40;;;;;;4991043;28;20541;-82
2021/04/22 06:16:42;;;;;;;11.55;5.93;;;9.60;93.20;;;;;;4986018;28;20049;-78
2021/04/22 06:19:07;;;;;;;14.73;6.07;;;10.30;92.70;;;;;;4988283;28;20097;-82
2021/04/22 06:21:33;;;;;;;10.77;5.47;;;9.60;92.80;;;;;;4976090;28;20034;-78
2021/04/22 06:23:59;;;;;;;12.98;5.40;;;9.70;91.50;;;;;;4981912;28;20081;-76
2021/04/22 06:26:24;;;;;;;12.70;5.85;;;9.60;91.50;;;;;;4991235;28;20038;-81
2021/04/22 06:28:50;;;;;;;12.40;5.18;;;10.10;91.60;;;;;;4988896;28;20112;-81
2021/04/22 06:31:16;;;;;;;11.23;5.10;;;9.70;90.90;;;;;;4987273;28;20062;-82
2021/04/22 06:33:42;;;;;;;10.35;4.57;;;9.60;90.90;;;;;;4990300;28;20042;-79
2021/04/22 06:36:07;;;;;;;14.85;4.72;;;11.00;90.50;;;;;;4985541;28;20037;-80
2021/04/22 06:38:33;;;;;;;12.77;4.90;;;9.70;90.00;;;;;;4986689;28;20031;-79
2021/04/22 06:40:59;;;;;;;12.60;4.50;;;9.80;88.10;;;;;;4985174;28;20026;-78
2021/04/22 06:43:27;;;;;;;10.40;3.83;;;9.90;86.70;;;;;;4987647;28;20102;-79
2021/04/22 06:45:52;;;;;;;11.43;4.15;;;10.00;85.30;;;;;;4983818;28;20034;-81
2021/04/22 06:48:18;;;;;;;11.60;3.78;;;10.10;83.00;;;;;;4989382;28;20029;-79
2021/04/22 06:50:44;;;;;;;9.73;3.80;;;10.30;81.40;;;;;;4985171;28;20030;-78
2021/04/22 06:53:11;;;;;;;11.55;3.50;;;10.40;79.90;;;;;;5003860;28;20034;-79
2021/04/22 06:55:38;;;;;;;10.57;3.28;;;10.40;77.20;;;;;;4985218;28;20077;-81
2021/04/22 06:58:05;;;;;;;9.45;3.03;;;10.50;76.10;;;;;;4988620;28;20037;-77
2021/04/22 07:00:37;;;;;;;15.38;3.83;;;11.30;75.70;;;;;;4983071;28;20023;-81
2021/04/22 07:03:04;;;;;;;12.80;3.13;;;10.60;74.70;;;;;;4986771;28;20072;-81
2021/04/22 07:05:30;;;;;;;8.10;2.78;;;10.50;73.80;;;;;;4989552;28;20058;-81
2021/04/22 07:07:55;;;;;;;8.60;3.33;;;10.50;72.80;;;;;;4987579;28;20061;-79
2021/04/22 07:10:21;;;;;;;12.52;3.33;;;10.50;72.50;;;;;;4985952;28;20022;-83
2021/04/22 07:12:47;;;;;;;10.15;3.80;;;12.80;73.90;;;;;;4983947;28;20027;-78
2021/04/22 07:15:13;;;;;;;8.45;3.05;;;10.60;72.40;;;;;;4988488;28;20064;-79
2021/04/22 07:17:40;;;;;;;15.27;3.30;;;10.70;71.80;;;;;;4983595;28;20034;-78
2021/04/22 07:20:12;;;;;;;8.05;3.15;;;10.70;70.90;;;;;;4981431;28;20026;-82
2021/04/22 07:22:40;;;;;;;11.90;3.60;;;10.80;70.30;;;;;;5004877;28;20390;-78
2021/04/22 07:25:08;;;;;;;11.82;3.45;;;10.90;69.60;;;;;;4988258;28;20031;-77
2021/04/22 07:27:34;;;;;;;10.05;3.42;;;11.00;68.60;;;;;;4990045;28;20046;-80
2021/04/22 07:29:59;;;;;;;13.80;3.30;;;11.00;68.00;;;;;;4983949;28;20038;-81
2021/04/22 07:32:25;;;;;;;9.63;3.53;;;11.00;67.80;;;;;;4985735;28;20022;-79
2021/04/22 07:34:51;;;;;;;9.35;3.30;;;11.20;68.20;;;;;;4984785;28;20026;-80
2021/04/22 07:37:20;;;;;;;7.78;3.35;;;11.10;67.50;;;;;;4982616;28;20041;-78
2021/04/22 07:39:46;;;;;;;12.60;3.70;;;11.60;67.40;;;;;;4984844;28;20035;-80
2021/04/22 07:42:12;;;;;;;10.93;3.35;;;11.10;67.60;;;;;;4985118;28;20448;-81
2021/04/22 07:44:38;;;;;;;11.73;3.53;;;11.20;67.60;;;;;;4984062;28;20080;-80
2021/04/22 07:47:04;;;;;;;10.25;3.53;;;11.40;67.50;;;;;;4985409;28;20084;-79
2021/04/22 07:49:29;;;;;;;12.20;3.90;;;11.50;66.80;;;;;;4980359;28;20538;-80
2021/04/22 07:51:56;;;;;;;10.95;3.40;;;11.40;66.30;;;;;;4979147;28;20044;-82
2021/04/22 07:54:22;;;;;;;12.75;3.75;;;11.40;66.10;;;;;;4977962;28;20026;-79
2021/04/22 07:56:48;;;;;;;10.38;3.45;;;11.50;65.70;;;;;;4973276;28;20032;-77
2021/04/22 07:59:13;;;;;;;11.88;3.88;;;11.60;65.00;;;;;;4987157;28;20553;-82
2021/04/22 08:01:39;;;;;;;10.80;3.03;;;11.70;64.00;;;;;;4982453;28;20110;-80
2021/04/22 08:04:05;;;;;;;9.10;3.42;;;11.90;62.30;;;;;;4982844;28;20022;-80
2021/04/22 08:06:32;;;;;;;7.80;3.25;;;11.90;61.00;;;;;;4985212;28;20054;-80
2021/04/22 08:08:58;;;;;;;15.38;3.13;;;12.00;60.60;;;;;;4980785;28;20022;-79
2021/04/22 08:11:24;;;;;;;10.60;3.42;;;12.20;60.10;;;;;;4982033;28;20109;-81
2021/04/22 08:13:49;;;;;;;9.75;3.30;;;12.10;59.60;;;;;;4989535;28;20057;-79
2021/04/22 08:16:15;;;;;;;11.45;3.80;;;12.20;59.90;;;;;;4983384;28;20085;-78
2021/04/22 08:18:41;;;;;;;9.30;3.03;;;13.60;59.90;;;;;;4985998;28;20034;-79
2021/04/22 08:21:07;;;;;;;9.88;3.00;;;12.20;58.10;;;;;;4986546;28;20031;-80
2021/04/22 08:23:33;;;;;;;9.65;3.03;;;12.40;57.30;;;;;;4982166;28;20054;-82
2021/04/22 08:26:06;;;;;;;7.13;2.78;;;12.50;57.10;;;;;;4983729;28;20214;-76
2021/04/22 08:28:33;;;;;;;8.57;3.30;;;12.40;56.50;;;;;;4980879;28;20039;-80
2021/04/22 08:31:19;;;;;;;8.88;3.13;;;12.60;55.70;;;;;;4974934;28;20409;-78
2021/04/22 08:33:47;;;;;;;13.25;3.28;;;12.80;55.70;;;;;;4982294;28;21307;-80
2021/04/22 08:36:13;;;;;;;10.02;3.35;;;12.80;55.80;;;;;;4978291;28;20662;-78
2021/04/22 08:38:38;;;;;;;6.97;2.63;;;12.90;54.50;;;;;;4983814;28;20439;-80
2021/04/22 08:41:04;;;;;;;8.15;2.40;;;13.00;54.20;;;;;;4980907;28;20378;-80
2021/04/22 08:43:31;;;;;;;5.95;2.30;;;13.10;52.90;;;;;;4986559;28;20049;-80
2021/04/22 08:45:57;;;;;;;5.45;2.33;;;13.10;52.50;;;;;;4984502;28;20038;-82
2021/04/22 08:48:23;;;;;;;9.88;2.20;;;13.30;51.00;;;;;;4992015;28;20061;-81
2021/04/22 08:50:53;;;;;;;8.15;2.45;;;13.30;50.20;;;;;;4988664;28;20038;-81
2021/04/22 08:53:29;;;;;;;8.30;2.70;;;13.50;49.30;;;;;;4986720;28;20112;-80
2021/04/22 08:55:56;;;;;;;8.60;2.22;;;13.50;48.60;;;;;;4985769;28;20089;-80
2021/04/22 08:58:22;;;;;;;8.20;2.53;;;13.40;48.40;;;;;;4987210;28;20125;-77
2021/04/22 09:01:10;;;;;;;7.10;2.30;;;13.50;48.10;;;;;;4989919;28;20019;-81
2021/04/22 09:03:37;;;;;;;6.90;2.13;;;13.50;47.50;;;;;;4989114;28;20041;-80
2021/04/22 09:06:03;;;;;;;9.57;2.72;;;13.50;47.90;;;;;;4996425;28;20084;-82
2021/04/22 09:08:40;;;;;;;6.63;2.30;;;13.60;47.50;;;;;;4996460;28;20030;-82
2021/04/22 09:11:07;;;;;;;6.07;2.30;;;13.70;46.70;;;;;;4988149;28;20030;-79
2021/04/22 09:13:34;;;;;;;10.20;2.40;;;13.80;46.40;;;;;;4991690;28;20095;-79
2021/04/22 09:16:07;;;;;;;5.50;2.05;;;13.50;46.10;;;;;;4987524;28;20034;-83
2021/04/22 09:18:37;;;;;;;8.35;2.05;;;13.50;46.50;;;;;;4991265;28;20031;-78
2021/04/22 09:21:03;;;;;;;6.87;1.73;;;13.70;44.60;;;;;;4987322;28;20023;-81
2021/04/22 09:23:29;;;;;;;5.70;2.10;;;13.70;44.00;;;;;;4991897;28;20422;-79
2021/04/22 09:25:56;;;;;;;7.57;2.38;;;13.50;44.80;;;;;;4994692;28;20459;-79
2021/04/22 09:28:36;;;;;;;5.53;1.85;;;13.50;45.80;;;;;;4996379;28;20037;-78
2021/04/22 09:31:03;;;;;;;5.55;2.00;;;13.70;43.80;;;;;;5008669;28;20038;-79
2021/04/22 09:33:30;;;;;;;4.97;2.13;;;13.50;43.50;;;;;;4991376;28;20084;-79
2021/04/22 09:36:10;;;;;;;5.68;1.80;;;13.60;44.20;;;;;;4987591;28;20209;-79
2021/04/22 09:38:37;;;;;;;5.88;2.10;;;13.80;43.70;;;;;;4993304;28;20030;-80
2021/04/22 09:41:25;;;;;;;4.50;2.08;;;14.00;41.40;;;;;;4993226;28;20030;-78
2021/04/22 09:44:01;;;;;;;6.75;1.98;;;14.50;41.70;;;;;;4995908;28;20026;-78
2021/04/22 09:46:27;;;;;;;6.53;2.10;;;14.60;42.00;;;;;;4990734;28;20057;-80
2021/04/22 09:48:53;;;;;;;6.00;2.20;;;14.60;42.90;;;;;;4991033;28;20034;-79
2021/04/22 09:51:32;;;;;;;7.53;2.00;;;14.50;42.00;;;;;;4991827;28;20121;-78
2021/04/22 09:54:16;;;;;;;10.30;2.47;;;14.70;41.60;;;;;;4994249;28;20141;-78
2021/04/22 09:56:54;;;;;;;4.10;2.00;;;14.70;41.70;;;;;;4991723;28;20108;-79
2021/04/22 09:59:22;;;;;;;6.55;2.03;;;14.70;41.10;;;;;;4991820;28;20026;-80
2021/04/22 10:01:59;;;;;;;6.65;2.25;;;14.80;42.60;;;;;;4992053;28;20038;-80
2021/04/22 10:04:40;;;;;;;4.97;1.92;;;14.90;41.10;;;;;;4989356;28;20030;-80
2021/04/22 10:07:26;;;;;;;4.20;1.88;;;14.90;41.00;;;;;;4995322;28;20107;-80
2021/04/22 10:09:54;;;;;;;15.00;5.47;;;14.90;41.00;;;;;;4995650;28;20117;-78
2021/04/22 10:12:32;;;;;;;4.90;1.77;;;15.20;41.70;;;;;;4990114;28;20034;-83
2021/04/22 10:15:22;;;;;;;5.22;1.90;;;15.10;41.00;;;;;;4993031;28;20026;-79
2021/04/22 10:18:03;;;;;;;8.43;2.28;;;15.20;40.40;;;;;;4990520;28;20034;-78
2021/04/22 10:20:31;;;;;;;5.18;2.00;;;15.30;38.90;;;;;;4992503;28;20038;-79
2021/04/22 10:22:57;;;;;;;4.25;1.85;;;16.10;38.80;;;;;;5010264;28;20096;-80
2021/04/22 10:25:29;;;;;;;5.03;1.70;;;15.40;38.40;;;;;;4993759;28;20030;-78
2021/04/22 10:28:03;;;;;;;4.80;1.55;;;15.30;38.40;;;;;;4988851;28;20053;-78
2021/04/22 10:30:28;;;;;;;6.65;2.20;;;15.40;35.90;;;;;;4987400;28;20034;-78
2021/04/22 10:32:54;;;;;;;5.35;1.83;;;15.50;35.40;;;;;;4993608;28;20569;-80
2021/04/22 10:35:24;;;;;;;5.32;1.88;;;15.50;36.50;;;;;;4987390;28;20026;-78
2021/04/22 10:37:53;;;;;;;5.37;1.90;;;15.50;36.60;;;;;;4990496;28;20030;-82
2021/04/22 10:40:24;;;;;;;3.65;1.55;;;15.60;35.30;;;;;;4990901;28;20275;-81
2021/04/22 10:42:53;;;;;;;4.88;1.65;;;15.60;35.00;;;;;;4991392;28;20409;-79
2021/04/22 10:45:19;;;;;;;5.03;1.95;;;15.80;35.60;;;;;;4983020;28;20125;-79
2021/04/22 10:47:45;;;;;;;6.43;2.70;;;15.90;36.40;;;;;;4988877;28;20505;-79
2021/04/22 10:50:15;;;;;;;5.13;1.80;;;15.90;37.10;;;;;;4990068;28;20060;-78
2021/04/22 10:52:45;;;;;;;;;;;15.80;35.20;;;;;;5003105;28;20501;-80
2021/04/22 10:55:22;;;;;;;6.53;1.93;;;15.70;35.40;;;;;;5004718;28;19913;-81
2021/04/22 10:57:49;;;;;;;5.22;1.85;;;15.70;35.80;;;;;;4989573;28;20316;-79
2021/04/22 11:00:19;;;;;;;3.85;1.85;;;15.70;36.20;;;;;;4990907;28;20400;-83
2021/04/22 11:02:55;;;;;;;5.95;1.83;;;15.90;35.00;;;;;;4991171;28;20038;-78
2021/04/22 11:05:27;;;;;;;5.90;1.80;;;15.90;35.20;;;;;;4991183;28;20022;-81
2021/04/22 11:08:04;;;;;;;3.97;1.65;;;16.00;34.90;;;;;;4988565;28;20027;-80
2021/04/22 11:10:46;;;;;;;5.93;1.83;;;16.00;34.50;;;;;;4987164;28;20053;-78
2021/04/22 11:13:18;;;;;;;5.55;2.00;;;16.20;32.70;;;;;;4983197;28;20397;-81
2021/04/22 11:15:52;;;;;;;4.93;2.05;;;16.30;33.00;;;;;;4985418;28;20066;-81
2021/04/22 11:18:19;;;;;;;4.97;1.80;;;16.30;34.10;;;;;;4982528;28;20038;-77
2021/04/22 11:20:48;;;;;;;7.47;1.83;;;16.40;35.30;;;;;;4985841;28;20030;-78
2021/04/22 11:23:19;;;;;;;6.93;2.55;;;16.30;35.00;;;;;;4989929;28;20085;-78
2021/04/22 11:25:50;;;;;;;5.30;2.15;;;16.10;35.00;;;;;;4968613;28;20089;-78
2021/04/22 11:28:26;;;;;;;7.05;2.22;;;16.50;34.60;;;;;;4989403;28;20066;-79
2021/04/22 11:30:54;;;;;;;6.95;2.00;;;16.70;35.00;;;;;;4981218;28;20450;-80
2021/04/22 11:33:27;;;;;;;33.42;16.67;;;16.80;33.70;;;;;;4987196;28;20041;-78
2021/04/22 11:35:53;;;;;;;5.43;2.40;;;16.80;32.80;;;;;;4980424;28;20050;-80
2021/04/22 11:38:19;;;;;;;5.97;2.20;;;16.80;32.70;;;;;;4980156;28;20099;-79
2021/04/22 11:40:49;;;;;;;4.72;1.80;;;16.30;31.40;;;;;;4979170;28;20109;-81
2021/04/22 11:43:23;;;;;;;5.25;1.60;;;16.20;32.40;;;;;;4986171;28;20038;-79
2021/04/22 11:45:52;;;;;;;5.78;2.00;;;16.60;32.10;;;;;;4980385;28;20041;-80
2021/04/22 11:48:18;;;;;;;4.75;2.00;;;16.80;32.40;;;;;;4982103;28;20023;-77
2021/04/22 11:50:48;;;;;;;6.90;2.05;;;17.00;32.00;;;;;;4976410;28;20065;-81
2021/04/22 11:53:15;;;;;;;7.57;2.17;;;16.90;31.60;;;;;;4984558;28;20038;-78
2021/04/22 11:55:46;;;;;;;6.03;1.75;;;16.60;30.80;;;;;;5004151;28;20117;-80
2021/04/22 11:58:14;;;;;;;5.78;2.03;;;16.60;31.60;;;;;;4990433;28;20096;-78
2021/04/22 12:00:46;;;;;;;5.32;1.73;;;16.80;32.10;;;;;;4988887;28;20520;-80
2021/04/22 12:03:24;;;;;;;6.07;2.45;;;16.80;32.60;;;;;;4991217;28;20037;-77
2021/04/22 12:06:05;;;;;;;10.35;2.10;;;17.10;32.30;;;;;;4996460;28;20099;-80
2021/04/22 12:08:35;;;;;;;7.68;1.95;;;17.60;32.10;;;;;;4984572;28;20045;-79
2021/04/22 12:11:03;;;;;;;6.18;2.05;;;17.90;31.00;;;;;;4979617;28;20034;-78
2021/04/22 12:13:30;;;;;;;4.22;1.73;;;18.00;30.90;;;;;;4977149;28;20038;-78
2021/04/22 12:15:59;;;;;;;7.32;2.17;;;18.00;30.10;;;;;;4987625;28;20026;-81
2021/04/22 12:18:37;;;;;;;6.53;2.05;;;17.90;29.80;;;;;;4980505;28;20035;-75
2021/04/22 12:21:25;;;;;;;8.45;2.08;;;18.10;30.20;;;;;;4980956;28;20018;-77
2021/04/22 12:23:58;;;;;;;4.57;1.40;;;18.10;29.10;;;;;;4987895;28;20040;-78
2021/04/22 12:26:35;;;;;;;6.43;1.90;;;18.00;28.40;;;;;;4986992;28;20022;-78
2021/04/22 12:29:13;;;;;;;5.97;2.20;;;18.00;28.20;;;;;;4982081;28;20023;-78
2021/04/22 12:31:40;;;;;;;4.03;1.80;;;17.80;28.40;;;;;;4981858;28;20027;-79
2021/04/22 12:34:24;;;;;;;5.40;1.60;;;18.00;28.50;;;;;;4984296;28;20030;-76
2021/04/22 12:37:12;;;;;;;5.28;1.60;;;18.00;28.50;;;;;;4982921;28;20041;-77
2021/04/22 12:39:43;;;;;;;6.85;1.95;;;17.90;28.90;;;;;;4984490;28;20117;-79
2021/04/22 12:42:17;;;;;;;3.58;1.58;;;18.20;27.80;;;;;;4983690;28;20160;-75
2021/04/22 12:44:58;;;;;;;4.70;1.73;;;18.20;27.80;;;;;;4985791;28;20136;-79